createdAt,value
2023-04-09T00:00:43.069Z,1015.47
2023-04-09T00:01:43.171Z,1015.45
2023-04-09T00:02:43.080Z,1015.43
2023-04-09T00:03:43.108Z,1015.42
2023-04-09T00:04:43.233Z,1015.44
2023-04-09T00:05:43.055Z,1015.39
2023-04-09T00:06:43.150Z,1015.42
2023-04-09T00:07:46.070Z,1015.4
2023-04-09T00:08:43.050Z,1015.39
2023-04-09T00:09:43.061Z,1015.46
2023-04-09T00:10:43.060Z,1015.43
2023-04-09T00:11:43.083Z,1015.43
2023-04-09T00:12:43.056Z,1015.47
2023-04-09T00:13:43.054Z,1015.43
2023-04-09T00:14:43.959Z,1015.47
2023-04-09T00:15:47.890Z,1015.43
2023-04-09T00:16:49.823Z,1015.42
2023-04-09T00:17:49.731Z,1015.42
2023-04-09T00:18:43.066Z,1015.42
2023-04-09T00:19:43.078Z,1015.42
2023-04-09T00:20:43.171Z,1015.36
2023-04-09T00:21:43.192Z,1015.36
2023-04-09T00:22:43.253Z,1015.37
2023-04-09T00:23:43.066Z,1015.36
2023-04-09T00:24:43.166Z,1015.38
2023-04-09T00:25:43.176Z,1015.37
2023-04-09T00:26:43.077Z,1015.36
2023-04-09T00:27:43.057Z,1015.34
2023-04-09T00:28:43.166Z,1015.34
2023-04-09T00:29:43.073Z,1015.33
2023-04-09T00:30:43.046Z,1015.28
2023-04-09T00:31:43.137Z,1015.33
2023-04-09T00:32:43.081Z,1015.27
2023-04-09T00:33:43.138Z,1015.25
2023-04-09T00:34:43.137Z,1015.28
2023-04-09T00:35:44.241Z,1015.28
2023-04-09T00:36:47.746Z,1015.28
2023-04-09T00:37:50.616Z,1015.27
2023-04-09T00:38:49.940Z,1015.27
2023-04-09T00:39:43.056Z,1015.29
2023-04-09T00:40:43.058Z,1015.23
2023-04-09T00:41:43.060Z,1015.23
2023-04-09T00:42:43.233Z,1015.24
2023-04-09T00:43:43.060Z,1015.23
2023-04-09T00:44:43.051Z,1015.23
2023-04-09T00:45:43.074Z,1015.24
2023-04-09T00:46:43.055Z,1015.23
2023-04-09T00:47:43.263Z,1015.24
2023-04-09T00:48:43.071Z,1015.26
2023-04-09T00:49:43.161Z,1015.24
2023-04-09T00:50:43.161Z,1015.22
2023-04-09T00:51:43.055Z,1015.27
2023-04-09T00:52:43.130Z,1015.26
2023-04-09T00:53:43.144Z,1015.23
2023-04-09T00:54:43.138Z,1015.22
2023-04-09T00:55:43.141Z,1015.21
2023-04-09T00:56:44.166Z,1015.21
2023-04-09T00:57:47.798Z,1015.22
2023-04-09T00:58:50.632Z,1015.22
2023-04-09T00:59:49.946Z,1015.26
2023-04-09T01:00:43.106Z,1015.23
2023-04-09T01:01:43.079Z,1015.21
2023-04-09T01:02:43.243Z,1015.22
2023-04-09T01:03:43.179Z,1015.23
2023-04-09T01:04:43.060Z,1015.21
2023-04-09T01:05:43.158Z,1015.2
2023-04-09T01:06:43.137Z,1015.19
2023-04-09T01:07:43.063Z,1015.22
2023-04-09T01:08:43.060Z,1015.23
2023-04-09T01:09:43.052Z,1015.19
2023-04-09T01:10:43.063Z,1015.23
2023-04-09T01:11:43.050Z,1015.24
2023-04-09T01:12:43.057Z,1015.21
2023-04-09T01:13:43.128Z,1015.23
2023-04-09T01:14:43.172Z,1015.24
2023-04-09T01:15:43.046Z,1015.26
2023-04-09T01:16:43.055Z,1015.21
2023-04-09T01:17:44.195Z,1015.23
2023-04-09T01:18:47.807Z,1015.23
2023-04-09T01:19:50.069Z,1015.26
2023-04-09T01:20:50.090Z,1015.24
2023-04-09T01:21:43.054Z,1015.21
2023-04-09T01:22:43.050Z,1015.23
2023-04-09T01:23:43.050Z,1015.22
2023-04-09T01:24:43.053Z,1015.24
2023-04-09T01:25:43.155Z,1015.22
2023-04-09T01:26:43.154Z,1015.19
2023-04-09T01:27:43.128Z,1015.23
2023-04-09T01:28:43.054Z,1015.21
2023-04-09T01:29:43.161Z,1015.22
2023-04-09T01:30:43.137Z,1015.21
2023-04-09T01:31:43.152Z,1015.22
2023-04-09T01:32:43.148Z,1015.22
2023-04-09T01:33:43.122Z,1015.24
2023-04-09T01:34:43.058Z,1015.21
2023-04-09T01:35:43.164Z,1015.23
2023-04-09T01:36:43.151Z,1015.22
2023-04-09T01:37:43.066Z,1015.19
2023-04-09T01:38:43.049Z,1015.24
2023-04-09T01:39:44.470Z,1015.24
2023-04-09T01:40:47.984Z,1015.22
2023-04-09T01:41:50.155Z,1015.24
2023-04-09T01:43:43.131Z,1015.23
2023-04-09T01:44:43.073Z,1015.2
2023-04-09T01:45:43.175Z,1015.22
2023-04-09T01:46:43.151Z,1015.22
2023-04-09T01:47:43.173Z,1015.26
2023-04-09T01:48:43.122Z,1015.21
2023-04-09T01:49:43.132Z,1015.19
2023-04-09T01:50:43.184Z,1015.19
2023-04-09T01:51:43.143Z,1015.2
2023-04-09T01:52:43.130Z,1015.17
2023-04-09T01:53:43.121Z,1015.17
2023-04-09T01:54:43.147Z,1015.17
2023-04-09T01:55:43.139Z,1015.19
2023-04-09T01:56:43.123Z,1015.16
2023-04-09T01:57:43.150Z,1015.2
2023-04-09T01:58:43.199Z,1015.18
2023-04-09T01:59:43.144Z,1015.2
2023-04-09T02:00:44.684Z,1015.21
2023-04-09T02:01:48.319Z,1015.24
2023-04-09T02:02:50.042Z,1015.27
2023-04-09T02:04:43.126Z,1015.22
2023-04-09T02:05:43.142Z,1015.22
2023-04-09T02:06:43.126Z,1015.19
2023-04-09T02:07:43.144Z,1015.21
2023-04-09T02:08:43.114Z,1015.15
2023-04-09T02:09:43.143Z,1015.21
2023-04-09T02:10:43.138Z,1015.17
2023-04-09T02:11:43.152Z,1015.2
2023-04-09T02:12:43.144Z,1015.2
2023-04-09T02:13:43.127Z,1015.18
2023-04-09T02:14:43.151Z,1015.14
2023-04-09T02:15:43.141Z,1015.15
2023-04-09T02:16:43.148Z,1015.22
2023-04-09T02:17:43.158Z,1015.24
2023-04-09T02:18:43.120Z,1015.25
2023-04-09T02:19:43.138Z,1015.24
2023-04-09T02:20:43.141Z,1015.21
2023-04-09T02:21:44.688Z,1015.26
2023-04-09T02:22:48.176Z,1015.22
2023-04-09T02:23:50.380Z,1015.21
2023-04-09T02:25:43.141Z,1015.21
2023-04-09T02:26:43.219Z,1015.18
2023-04-09T02:27:43.145Z,1015.21
2023-04-09T02:28:43.126Z,1015.19
2023-04-09T02:29:43.137Z,1015.22
2023-04-09T02:30:43.157Z,1015.19
2023-04-09T02:31:43.143Z,1015.17
2023-04-09T02:32:43.122Z,1015.18
2023-04-09T02:33:43.136Z,1015.12
2023-04-09T02:34:43.137Z,1015.15
2023-04-09T02:35:43.176Z,1015.13
2023-04-09T02:36:43.138Z,1015.18
2023-04-09T02:37:43.146Z,1015.17
2023-04-09T02:38:43.149Z,1015.19
2023-04-09T02:39:43.136Z,1015.14
2023-04-09T02:40:43.157Z,1015.14
2023-04-09T02:41:43.129Z,1015.19
2023-04-09T02:42:44.756Z,1015.15
2023-04-09T02:43:47.734Z,1015.16
2023-04-09T02:44:50.449Z,1015.15
2023-04-09T02:46:43.181Z,1015.18
2023-04-09T02:47:43.144Z,1015.1
2023-04-09T02:48:43.135Z,1015.1
2023-04-09T02:49:43.138Z,1015.11
2023-04-09T02:50:43.142Z,1015.1
2023-04-09T02:51:43.134Z,1015.07
2023-04-09T02:52:43.126Z,1015.1
2023-04-09T02:53:43.154Z,1015.14
2023-04-09T02:54:43.131Z,1015.17
2023-04-09T02:55:43.134Z,1015.15
2023-04-09T02:56:43.140Z,1015.15
2023-04-09T02:57:43.130Z,1015.13
2023-04-09T02:58:43.135Z,1015.11
2023-04-09T02:59:43.136Z,1015.1
2023-04-09T03:00:43.140Z,1015.11
2023-04-09T03:01:43.203Z,1015.1
2023-04-09T03:02:43.334Z,1015.13
2023-04-09T03:03:44.888Z,1015.12
2023-04-09T03:04:47.827Z,1015.13
2023-04-09T03:05:50.581Z,1015.14
2023-04-09T03:07:43.143Z,1015.1
2023-04-09T03:08:43.122Z,1015.07
2023-04-09T03:09:43.127Z,1015.03
2023-04-09T03:10:43.130Z,1015
2023-04-09T03:11:43.150Z,1015
2023-04-09T03:12:43.132Z,1014.99
2023-04-09T03:13:43.132Z,1014.97
2023-04-09T03:14:43.161Z,1014.97
2023-04-09T03:15:43.216Z,1014.99
2023-04-09T03:16:43.122Z,1014.93
2023-04-09T03:17:43.154Z,1014.95
2023-04-09T03:18:43.130Z,1014.99
2023-04-09T03:19:43.128Z,1014.94
2023-04-09T03:20:43.123Z,1014.93
2023-04-09T03:21:43.126Z,1014.91
2023-04-09T03:22:43.127Z,1014.91
2023-04-09T03:23:43.129Z,1014.94
2023-04-09T03:24:45.027Z,1014.9
2023-04-09T03:25:48.016Z,1014.94
2023-04-09T03:26:50.396Z,1014.91
2023-04-09T03:28:43.130Z,1014.85
2023-04-09T03:29:43.122Z,1014.86
2023-04-09T03:30:43.124Z,1014.86
2023-04-09T03:31:43.177Z,1014.83
2023-04-09T03:32:43.275Z,1014.84
2023-04-09T03:33:43.119Z,1014.81
2023-04-09T03:34:43.132Z,1014.81
2023-04-09T03:35:43.291Z,1014.79
2023-04-09T03:36:43.130Z,1014.79
2023-04-09T03:37:43.132Z,1014.76
2023-04-09T03:38:43.139Z,1014.76
2023-04-09T03:39:43.122Z,1014.76
2023-04-09T03:40:43.121Z,1014.74
2023-04-09T03:41:43.134Z,1014.74
2023-04-09T03:42:43.134Z,1014.74
2023-04-09T03:43:43.507Z,1014.74
2023-04-09T03:44:43.520Z,1014.72
2023-04-09T03:45:45.011Z,1014.7
2023-04-09T03:46:48.119Z,1014.7
2023-04-09T03:47:50.534Z,1014.76
2023-04-09T03:49:43.130Z,1014.78
2023-04-09T03:50:43.120Z,1014.82
2023-04-09T03:51:43.117Z,1014.81
2023-04-09T03:52:43.127Z,1014.86
2023-04-09T03:53:43.292Z,1014.82
2023-04-09T03:54:43.122Z,1014.79
2023-04-09T03:55:43.116Z,1014.79
2023-04-09T03:56:43.232Z,1014.77
2023-04-09T03:57:43.114Z,1014.74
2023-04-09T03:58:43.120Z,1014.76
2023-04-09T03:59:43.121Z,1014.76
2023-04-09T04:00:43.114Z,1014.81
2023-04-09T04:01:43.147Z,1014.85
2023-04-09T04:02:43.228Z,1014.86
2023-04-09T04:03:43.374Z,1014.81
2023-04-09T04:04:43.159Z,1014.83
2023-04-09T04:05:43.117Z,1014.78
2023-04-09T04:06:45.215Z,1014.79
2023-04-09T04:07:48.192Z,1014.78
2023-04-09T04:08:50.984Z,1014.79
2023-04-09T04:10:43.128Z,1014.76
2023-04-09T04:11:43.110Z,1014.8
2023-04-09T04:12:43.116Z,1014.79
2023-04-09T04:13:43.122Z,1014.78
2023-04-09T04:14:43.116Z,1014.81
2023-04-09T04:15:43.115Z,1014.8
2023-04-09T04:16:43.226Z,1014.87
2023-04-09T04:17:43.352Z,1014.82
2023-04-09T04:18:43.108Z,1014.8
2023-04-09T04:19:43.107Z,1014.82
2023-04-09T04:20:43.171Z,1014.83
2023-04-09T04:21:43.115Z,1014.83
2023-04-09T04:22:43.115Z,1014.81
2023-04-09T04:23:43.121Z,1014.78
2023-04-09T04:24:43.171Z,1014.8
2023-04-09T04:25:43.118Z,1014.78
2023-04-09T04:26:43.112Z,1014.8
2023-04-09T04:27:45.304Z,1014.78
2023-04-09T04:28:48.259Z,1014.78
2023-04-09T04:29:45.248Z,1014.78
2023-04-09T04:30:49.075Z,1014.8
2023-04-09T04:31:54.059Z,1014.8
2023-04-09T04:33:43.103Z,1014.84
2023-04-09T04:34:43.107Z,1014.82
2023-04-09T04:35:43.165Z,1014.85
2023-04-09T04:36:43.108Z,1014.83
2023-04-09T04:37:43.116Z,1014.77
2023-04-09T04:38:43.102Z,1014.79
2023-04-09T04:39:43.111Z,1014.78
2023-04-09T04:40:43.149Z,1014.8
2023-04-09T04:41:43.100Z,1014.8
2023-04-09T04:42:43.103Z,1014.82
2023-04-09T04:43:43.113Z,1014.83
2023-04-09T04:44:43.107Z,1014.85
2023-04-09T04:45:43.119Z,1014.84
2023-04-09T04:46:43.105Z,1014.8
2023-04-09T04:47:43.132Z,1014.87
2023-04-09T04:48:43.115Z,1014.87
2023-04-09T04:49:45.414Z,1014.83
2023-04-09T04:50:48.493Z,1014.82
2023-04-09T04:51:49.350Z,1014.85
2023-04-09T04:53:43.115Z,1014.86
2023-04-09T04:54:43.104Z,1014.88
2023-04-09T04:55:43.108Z,1014.9
2023-04-09T04:56:43.119Z,1014.86
2023-04-09T04:57:43.111Z,1014.88
2023-04-09T04:58:43.113Z,1014.86
2023-04-09T04:59:43.112Z,1014.85
2023-04-09T05:00:43.139Z,1014.86
2023-04-09T05:01:43.143Z,1014.86
2023-04-09T05:02:43.220Z,1014.82
2023-04-09T05:03:43.249Z,1014.82
2023-04-09T05:04:43.105Z,1014.85
2023-04-09T05:05:43.111Z,1014.86
2023-04-09T05:06:43.107Z,1014.88
2023-04-09T05:07:43.107Z,1014.88
2023-04-09T05:08:43.106Z,1014.87
2023-04-09T05:09:43.156Z,1014.84
2023-04-09T05:10:45.420Z,1014.85
2023-04-09T05:11:48.567Z,1014.81
2023-04-09T05:12:50.048Z,1014.86
2023-04-09T05:14:43.110Z,1014.83
2023-04-09T05:15:43.109Z,1014.86
2023-04-09T05:16:43.178Z,1014.84
2023-04-09T05:17:43.126Z,1014.86
2023-04-09T05:18:43.109Z,1014.85
2023-04-09T05:19:43.099Z,1014.85
2023-04-09T05:20:43.096Z,1014.87
2023-04-09T05:21:43.372Z,1014.84
2023-04-09T05:22:43.093Z,1014.86
2023-04-09T05:23:43.108Z,1014.85
2023-04-09T05:24:43.159Z,1014.9
2023-04-09T05:25:43.143Z,1014.9
2023-04-09T05:26:43.099Z,1014.93
2023-04-09T05:27:43.108Z,1014.94
2023-04-09T05:28:43.093Z,1014.92
2023-04-09T05:29:43.173Z,1014.92
2023-04-09T05:30:43.251Z,1014.95
2023-04-09T05:31:45.485Z,1014.9
2023-04-09T05:32:48.595Z,1014.9
2023-04-09T05:33:48.629Z,1014.94
2023-04-09T05:35:43.197Z,1014.85
2023-04-09T05:36:43.182Z,1014.83
2023-04-09T05:37:43.180Z,1014.85
2023-04-09T05:38:43.148Z,1014.85
2023-04-09T05:39:43.120Z,1014.85
2023-04-09T05:40:43.143Z,1014.8
2023-04-09T05:41:43.179Z,1014.87
2023-04-09T05:42:43.160Z,1014.87
2023-04-09T05:43:43.146Z,1014.87
2023-04-09T05:44:43.094Z,1014.88
2023-04-09T05:45:43.119Z,1014.89
2023-04-09T05:46:43.101Z,1014.91
2023-04-09T05:47:43.090Z,1014.94
2023-04-09T05:48:43.099Z,1014.94
2023-04-09T05:49:43.098Z,1014.95
2023-04-09T05:50:54.320Z,1014.94
2023-04-09T05:52:45.506Z,1014.96
2023-04-09T05:53:48.734Z,1014.97
2023-04-09T05:54:50.206Z,1014.95
2023-04-09T05:56:43.228Z,1014.96
2023-04-09T05:57:43.100Z,1014.98
2023-04-09T05:58:43.091Z,1014.98
2023-04-09T05:59:43.183Z,1014.95
2023-04-09T06:00:43.098Z,1014.96
2023-04-09T06:01:43.097Z,1014.95
2023-04-09T06:02:43.178Z,1014.91
2023-04-09T06:03:43.180Z,1014.97
2023-04-09T06:04:43.150Z,1014.89
2023-04-09T06:05:43.104Z,1014.93
2023-04-09T06:06:43.104Z,1014.89
2023-04-09T06:07:43.099Z,1014.87
2023-04-09T06:08:43.106Z,1014.87
2023-04-09T06:09:43.103Z,1014.89
2023-04-09T06:10:43.106Z,1014.85
2023-04-09T06:11:43.095Z,1014.79
2023-04-09T06:12:43.519Z,1014.82
2023-04-09T06:13:45.586Z,1014.84
2023-04-09T06:14:48.816Z,1014.87
2023-04-09T06:15:50.265Z,1014.87
2023-04-09T06:17:43.317Z,1014.84
2023-04-09T06:18:43.102Z,1014.89
2023-04-09T06:19:43.095Z,1014.87
2023-04-09T06:20:43.099Z,1014.86
2023-04-09T06:21:43.090Z,1014.86
2023-04-09T06:22:43.132Z,1014.85
2023-04-09T06:23:43.103Z,1014.85
2023-04-09T06:24:43.101Z,1014.81
2023-04-09T06:25:43.091Z,1014.82
2023-04-09T06:26:43.097Z,1014.8
2023-04-09T06:27:43.098Z,1014.84
2023-04-09T06:28:43.094Z,1014.83
2023-04-09T06:29:43.089Z,1014.76
2023-04-09T06:30:43.099Z,1014.8
2023-04-09T06:31:43.184Z,1014.78
2023-04-09T06:32:54.749Z,1014.8
2023-04-09T06:34:46.579Z,1014.76
2023-04-09T06:35:48.914Z,1014.74
2023-04-09T06:36:50.608Z,1014.77
2023-04-09T06:38:43.089Z,1014.76
2023-04-09T06:40:01.203Z,1014.75
2023-04-09T06:41:43.090Z,1014.76
2023-04-09T06:42:43.089Z,1014.77
2023-04-09T06:43:43.091Z,1014.79
2023-04-09T06:44:43.120Z,1014.79
2023-04-09T06:45:43.162Z,1014.75
2023-04-09T06:46:43.097Z,1014.82
2023-04-09T06:47:43.093Z,1014.82
2023-04-09T06:48:43.212Z,1014.81
2023-04-09T06:49:43.092Z,1014.84
2023-04-09T06:50:43.085Z,1014.81
2023-04-09T06:51:43.087Z,1014.86
2023-04-09T06:52:43.092Z,1014.86
2023-04-09T06:53:43.122Z,1014.81
2023-04-09T06:54:43.080Z,1014.89
2023-04-09T06:55:46.689Z,1014.91
2023-04-09T06:56:48.987Z,1014.93
2023-04-09T06:57:48.976Z,1014.9
2023-04-09T06:59:43.078Z,1014.91
2023-04-09T07:00:43.078Z,1014.92
2023-04-09T07:01:43.189Z,1014.89
2023-04-09T07:02:43.312Z,1014.93
2023-04-09T07:03:43.128Z,1014.86
2023-04-09T07:04:43.131Z,1014.9
2023-04-09T07:05:43.215Z,1014.88
2023-04-09T07:06:43.171Z,1014.91
2023-04-09T07:07:43.078Z,1014.88
2023-04-09T07:08:43.087Z,1014.9
2023-04-09T07:09:43.252Z,1014.88
2023-04-09T07:10:43.268Z,1014.9
2023-04-09T07:11:43.086Z,1014.93
2023-04-09T07:12:43.086Z,1014.82
2023-04-09T07:13:43.090Z,1014.86
2023-04-09T07:14:43.085Z,1014.88
2023-04-09T07:15:44.241Z,1014.83
2023-04-09T07:16:46.740Z,1014.88
2023-04-09T07:17:49.097Z,1014.86
2023-04-09T07:18:50.828Z,1014.89
2023-04-09T07:20:43.084Z,1014.84
2023-04-09T07:21:43.082Z,1014.88
2023-04-09T07:22:43.077Z,1014.89
2023-04-09T07:23:43.106Z,1014.84
2023-04-09T07:24:43.080Z,1014.89
2023-04-09T07:25:43.210Z,1014.87
2023-04-09T07:26:43.074Z,1014.84
2023-04-09T07:27:43.107Z,1014.87
2023-04-09T07:28:43.098Z,1014.84
2023-04-09T07:29:43.083Z,1014.83
2023-04-09T07:30:43.087Z,1014.91
2023-04-09T07:31:43.112Z,1014.85
2023-04-09T07:32:43.104Z,1014.87
2023-04-09T07:33:43.101Z,1014.89
2023-04-09T07:34:43.080Z,1014.87
2023-04-09T07:35:43.097Z,1014.84
2023-04-09T07:36:43.102Z,1014.84
2023-04-09T07:37:43.261Z,1014.84
2023-04-09T07:38:43.656Z,1014.84
2023-04-09T07:39:47.319Z,1014.86
2023-04-09T07:40:49.425Z,1014.85
2023-04-09T07:41:49.439Z,1014.85
2023-04-09T07:42:43.085Z,1014.85
2023-04-09T07:43:43.110Z,1014.9
2023-04-09T07:44:43.066Z,1014.88
2023-04-09T07:45:43.096Z,1014.87
2023-04-09T07:46:43.089Z,1014.88
2023-04-09T07:47:43.101Z,1014.88
2023-04-09T07:48:43.075Z,1014.87
2023-04-09T07:49:43.085Z,1014.9
2023-04-09T07:50:43.079Z,1014.89
2023-04-09T07:51:43.631Z,1014.9
2023-04-09T07:52:43.094Z,1014.86
2023-04-09T07:53:43.070Z,1014.88
2023-04-09T07:54:43.075Z,1014.89
2023-04-09T07:55:43.071Z,1014.92
2023-04-09T07:56:43.083Z,1014.92
2023-04-09T07:57:43.084Z,1014.91
2023-04-09T07:58:43.190Z,1014.93
2023-04-09T07:59:43.783Z,1014.94
2023-04-09T08:00:47.639Z,1014.92
2023-04-09T08:01:49.576Z,1014.88
2023-04-09T08:02:49.690Z,1014.93
2023-04-09T08:03:43.227Z,1014.91
2023-04-09T08:04:43.258Z,1014.92
2023-04-09T08:05:43.072Z,1014.91
2023-04-09T08:06:43.098Z,1014.89
2023-04-09T08:07:43.156Z,1014.9
2023-04-09T08:08:43.066Z,1014.91
2023-04-09T08:09:43.158Z,1014.92
2023-04-09T08:10:43.248Z,1014.85
2023-04-09T08:11:43.099Z,1014.91
2023-04-09T08:12:43.077Z,1014.89
2023-04-09T08:13:43.122Z,1014.88
2023-04-09T08:14:43.066Z,1014.84
2023-04-09T08:15:43.071Z,1014.9
2023-04-09T08:16:43.096Z,1014.9
2023-04-09T08:17:43.122Z,1014.88
2023-04-09T08:18:43.299Z,1014.88
2023-04-09T08:19:44.097Z,1014.88
2023-04-09T08:20:43.824Z,1014.91
2023-04-09T08:21:47.613Z,1014.9
2023-04-09T08:22:49.708Z,1014.91
2023-04-09T08:23:49.810Z,1014.95
2023-04-09T08:24:43.098Z,1014.92
2023-04-09T08:25:43.244Z,1014.95
2023-04-09T08:26:43.066Z,1014.95
2023-04-09T08:27:43.088Z,1014.92
2023-04-09T08:28:43.258Z,1014.92
2023-04-09T08:29:43.066Z,1014.91
2023-04-09T08:30:43.084Z,1014.86
2023-04-09T08:31:43.116Z,1014.86
2023-04-09T08:32:43.097Z,1014.9
2023-04-09T08:33:43.064Z,1014.86
2023-04-09T08:34:43.070Z,1014.85
2023-04-09T08:35:43.109Z,1014.91
2023-04-09T08:36:43.072Z,1014.89
2023-04-09T08:37:43.060Z,1014.88
2023-04-09T08:38:43.070Z,1014.89
2023-04-09T08:39:43.063Z,1014.91
2023-04-09T08:40:43.097Z,1014.87
2023-04-09T08:41:43.939Z,1014.9
2023-04-09T08:42:47.670Z,1014.86
2023-04-09T08:43:58.105Z,1014.88
2023-04-09T08:44:49.774Z,1014.86
2023-04-09T08:45:43.099Z,1014.8
2023-04-09T08:46:43.070Z,1014.82
2023-04-09T08:47:43.196Z,1014.81
2023-04-09T08:48:43.079Z,1014.82
2023-04-09T08:49:43.075Z,1014.83
2023-04-09T08:50:43.056Z,1014.82
2023-04-09T08:51:43.057Z,1014.77
2023-04-09T08:52:43.159Z,1014.76
2023-04-09T08:53:43.062Z,1014.72
2023-04-09T08:54:43.073Z,1014.72
2023-04-09T08:55:43.107Z,1014.75
2023-04-09T08:56:43.122Z,1014.77
2023-04-09T08:57:43.067Z,1014.76
2023-04-09T08:58:43.055Z,1014.73
2023-04-09T08:59:43.152Z,1014.73
2023-04-09T09:00:43.056Z,1014.71
2023-04-09T09:01:43.119Z,1014.69
2023-04-09T09:02:44.182Z,1014.63
2023-04-09T09:03:47.816Z,1014.63
2023-04-09T09:04:50.620Z,1014.66
2023-04-09T09:05:49.810Z,1014.64
2023-04-09T09:06:43.053Z,1014.64
2023-04-09T09:07:43.054Z,1014.65
2023-04-09T09:08:43.055Z,1014.65
2023-04-09T09:09:43.060Z,1014.62
2023-04-09T09:10:43.071Z,1014.6
2023-04-09T09:11:43.063Z,1014.56
2023-04-09T09:12:43.071Z,1014.59
2023-04-09T09:13:43.058Z,1014.56
2023-04-09T09:14:43.059Z,1014.57
2023-04-09T09:15:43.080Z,1014.57
2023-04-09T09:16:43.189Z,1014.56
2023-04-09T09:17:43.249Z,1014.55
2023-04-09T09:18:43.048Z,1014.53
2023-04-09T09:19:43.056Z,1014.54
2023-04-09T09:20:43.199Z,1014.55
2023-04-09T09:21:43.055Z,1014.55
2023-04-09T09:22:43.064Z,1014.56
2023-04-09T09:23:44.105Z,1014.57
2023-04-09T09:24:51.747Z,1014.54
2023-04-09T09:25:50.005Z,1014.58
2023-04-09T09:26:49.974Z,1014.52
2023-04-09T09:27:43.076Z,1014.5
2023-04-09T09:28:43.052Z,1014.56
2023-04-09T09:29:43.047Z,1014.56
2023-04-09T09:30:43.158Z,1014.57
2023-04-09T09:31:43.062Z,1014.63
2023-04-09T09:32:43.097Z,1014.6
2023-04-09T09:33:43.060Z,1014.58
2023-04-09T09:34:43.055Z,1014.55
2023-04-09T09:35:43.076Z,1014.51
2023-04-09T09:36:43.053Z,1014.51
2023-04-09T09:37:43.050Z,1014.53
2023-04-09T09:38:43.059Z,1014.52
2023-04-09T09:39:43.049Z,1014.47
2023-04-09T09:40:43.084Z,1014.49
2023-04-09T09:41:43.162Z,1014.49
2023-04-09T09:42:43.056Z,1014.55
2023-04-09T09:43:43.050Z,1014.54
2023-04-09T09:44:44.299Z,1014.53
2023-04-09T09:45:47.940Z,1014.51
2023-04-09T09:46:49.570Z,1014.49
2023-04-09T09:47:50.174Z,1014.56
2023-04-09T09:48:43.066Z,1014.49
2023-04-09T09:49:43.070Z,1014.45
2023-04-09T09:50:43.075Z,1014.47
2023-04-09T09:51:43.058Z,1014.47
2023-04-09T09:52:43.054Z,1014.46
2023-04-09T09:53:43.073Z,1014.44
2023-04-09T09:54:43.058Z,1014.45
2023-04-09T09:55:43.159Z,1014.5
2023-04-09T09:56:43.052Z,1014.46
2023-04-09T09:57:43.064Z,1014.46
2023-04-09T09:58:43.059Z,1014.47
2023-04-09T09:59:43.070Z,1014.5
2023-04-09T10:00:43.058Z,1014.53
2023-04-09T10:01:43.101Z,1014.61
2023-04-09T10:02:43.127Z,1014.63
2023-04-09T10:03:43.069Z,1014.66
2023-04-09T10:04:43.097Z,1014.52
2023-04-09T10:05:44.825Z,1014.5
2023-04-09T10:06:47.960Z,1014.47
2023-04-09T10:07:49.416Z,1014.49
2023-04-09T10:09:43.058Z,1014.51
2023-04-09T10:10:43.076Z,1014.47
2023-04-09T10:11:43.088Z,1014.53
2023-04-09T10:12:43.071Z,1014.49
2023-04-09T10:13:43.065Z,1014.48
2023-04-09T10:14:43.050Z,1014.47
2023-04-09T10:15:43.118Z,1014.44
2023-04-09T10:16:43.058Z,1014.4
2023-04-09T10:17:43.122Z,1014.4
2023-04-09T10:18:43.052Z,1014.37
2023-04-09T10:19:43.083Z,1014.35
2023-04-09T10:20:43.074Z,1014.32
2023-04-09T10:21:46.064Z,1014.26
2023-04-09T10:23:43.057Z,1014.3
2023-04-09T10:24:43.075Z,1014.26
2023-04-09T10:25:43.070Z,1014.22
2023-04-09T10:26:44.515Z,1014.23
2023-04-09T10:27:48.010Z,1014.23
2023-04-09T10:28:48.270Z,1014.23
2023-04-09T10:30:43.059Z,1014.2
2023-04-09T10:31:43.100Z,1014.24
2023-04-09T10:32:43.058Z,1014.16
2023-04-09T10:33:43.052Z,1014.17
2023-04-09T10:34:43.052Z,1014.18
2023-04-09T10:35:43.074Z,1014.17
2023-04-09T10:36:43.078Z,1014.16
2023-04-09T10:37:43.084Z,1014.14
2023-04-09T10:38:43.068Z,1014.15
2023-04-09T10:39:43.069Z,1014.15
2023-04-09T10:40:43.058Z,1014.16
2023-04-09T10:41:43.061Z,1014.13
2023-04-09T10:42:43.058Z,1014.12
2023-04-09T10:43:43.071Z,1014.15
2023-04-09T10:44:43.056Z,1014.12
2023-04-09T10:45:43.241Z,1014.17
2023-04-09T10:46:43.129Z,1014.12
2023-04-09T10:47:43.099Z,1014.08
2023-04-09T10:48:45.424Z,1014.08
2023-04-09T10:49:48.380Z,1014.02
2023-04-09T10:50:49.312Z,1014.02
2023-04-09T10:52:43.074Z,1013.98
2023-04-09T10:53:43.055Z,1014.01
2023-04-09T10:54:43.054Z,1014.03
2023-04-09T10:55:43.080Z,1013.95
2023-04-09T10:56:43.062Z,1014.02
2023-04-09T10:57:43.066Z,1014.03
2023-04-09T10:58:43.055Z,1014.02
2023-04-09T10:59:43.059Z,1014
2023-04-09T11:00:43.068Z,1013.99
2023-04-09T11:01:43.123Z,1013.92
2023-04-09T11:02:43.133Z,1013.92
2023-04-09T11:03:43.087Z,1013.99
2023-04-09T11:04:43.089Z,1014.03
2023-04-09T11:05:43.049Z,1013.96
2023-04-09T11:06:43.083Z,1014
2023-04-09T11:07:43.052Z,1013.96
2023-04-09T11:08:43.049Z,1013.93
2023-04-09T11:09:45.848Z,1013.93
2023-04-09T11:10:51.863Z,1013.96
2023-04-09T11:11:48.829Z,1013.92
2023-04-09T11:13:43.060Z,1013.89
2023-04-09T11:14:43.046Z,1013.95
2023-04-09T11:15:43.075Z,1013.9
2023-04-09T11:16:43.181Z,1013.87
2023-04-09T11:17:43.389Z,1013.85
2023-04-09T11:18:43.052Z,1013.85
2023-04-09T11:19:43.060Z,1013.81
2023-04-09T11:20:43.069Z,1013.78
2023-04-09T11:21:43.496Z,1013.86
2023-04-09T11:22:43.048Z,1013.75
2023-04-09T11:23:43.068Z,1013.81
2023-04-09T11:24:43.294Z,1013.74
2023-04-09T11:25:43.050Z,1013.73
2023-04-09T11:26:43.087Z,1013.73
2023-04-09T11:27:44.258Z,1013.71
2023-04-09T11:28:43.097Z,1013.64
2023-04-09T11:29:43.087Z,1013.63
2023-04-09T11:30:45.650Z,1013.62
2023-04-09T11:31:48.566Z,1013.63
2023-04-09T11:32:48.639Z,1013.65
2023-04-09T11:34:43.076Z,1013.64
2023-04-09T11:35:43.065Z,1013.67
2023-04-09T11:36:43.059Z,1013.64
2023-04-09T11:37:43.060Z,1013.7
2023-04-09T11:38:43.044Z,1013.63
2023-04-09T11:39:43.055Z,1013.64
2023-04-09T11:40:43.038Z,1013.61
2023-04-09T11:41:43.057Z,1013.65
2023-04-09T11:42:43.046Z,1013.67
2023-04-09T11:43:43.126Z,1013.69
2023-04-09T11:44:43.049Z,1013.65
2023-04-09T11:45:43.071Z,1013.7
2023-04-09T11:46:43.082Z,1013.64
2023-04-09T11:47:43.071Z,1013.66
2023-04-09T11:48:43.048Z,1013.65
2023-04-09T11:49:43.043Z,1013.63
2023-04-09T11:50:43.179Z,1013.7
2023-04-09T11:51:45.622Z,1013.65
2023-04-09T11:52:48.641Z,1013.69
2023-04-09T11:53:48.641Z,1013.68
2023-04-09T11:55:43.151Z,1013.68
2023-04-09T11:56:43.067Z,1013.73
2023-04-09T11:57:43.060Z,1013.72
2023-04-09T11:58:43.062Z,1013.69
2023-04-09T11:59:43.049Z,1013.65
2023-04-09T12:00:43.055Z,1013.64
2023-04-09T12:01:43.085Z,1013.67
2023-04-09T12:02:43.238Z,1013.6
2023-04-09T12:03:43.176Z,1013.64
2023-04-09T12:04:43.148Z,1013.61
2023-04-09T12:05:52.065Z,1013.62
2023-04-09T12:09:43.058Z,1013.67
2023-04-09T12:10:43.060Z,1013.73
2023-04-09T12:11:43.259Z,1013.68
2023-04-09T12:12:45.559Z,1013.71
2023-04-09T12:13:48.691Z,1013.68
2023-04-09T12:14:50.458Z,1013.71
2023-04-09T12:16:43.237Z,1013.69
2023-04-09T12:17:43.091Z,1013.72
2023-04-09T12:18:43.071Z,1013.73
2023-04-09T12:19:43.106Z,1013.71
2023-04-09T12:20:43.059Z,1013.71
2023-04-09T12:21:43.067Z,1013.67
2023-04-09T12:22:43.076Z,1013.69
2023-04-09T12:23:43.075Z,1013.7
2023-04-09T12:24:43.061Z,1013.66
2023-04-09T12:25:43.059Z,1013.66
2023-04-09T12:26:43.096Z,1013.66
2023-04-09T12:27:43.051Z,1013.69
2023-04-09T12:28:43.073Z,1013.62
2023-04-09T12:29:43.052Z,1013.62
2023-04-09T12:30:43.059Z,1013.68
2023-04-09T12:31:43.093Z,1013.65
2023-04-09T12:32:43.413Z,1013.64
2023-04-09T12:33:45.671Z,1013.58
2023-04-09T12:34:48.822Z,1013.59
2023-04-09T12:35:50.593Z,1013.58
2023-04-09T12:37:43.144Z,1013.59
2023-04-09T12:38:43.058Z,1013.6
2023-04-09T12:39:43.068Z,1013.57
2023-04-09T12:40:43.182Z,1013.54